createdAt,value
2022-10-11T00:01:59.278Z,6.97
2022-10-11T00:04:26.424Z,7.85
2022-10-11T00:06:53.616Z,13.20
2022-10-11T00:09:20.767Z,7.38
2022-10-11T00:11:47.905Z,9.27
2022-10-11T00:14:15.059Z,7.03
2022-10-11T00:16:44.351Z,12.50
2022-10-11T00:19:11.710Z,9.20
2022-10-11T00:21:39.265Z,7.38
2022-10-11T00:24:06.632Z,13.77
2022-10-11T00:26:33.935Z,6.82
2022-10-11T00:29:01.071Z,8.25
2022-10-11T00:31:30.923Z,14.25
2022-10-11T00:34:01.903Z,11.27
2022-10-11T00:36:29.110Z,8.50
2022-10-11T00:38:56.308Z,6.18
2022-10-11T00:41:23.453Z,10.65
2022-10-11T00:44:15.290Z,6.45
2022-10-11T00:46:53.645Z,7.25
2022-10-11T00:49:44.425Z,7.38
2022-10-11T00:52:33.250Z,6.78
2022-10-11T00:55:05.827Z,11.43
2022-10-11T00:57:36.243Z,11.10
2022-10-11T01:00:06.498Z,11.50
2022-10-11T01:02:33.657Z,10.18
2022-10-11T01:05:18.304Z,11.75
2022-10-11T01:07:48.168Z,6.47
2022-10-11T01:10:15.421Z,12.15
2022-10-11T01:13:05.910Z,10.98
2022-10-11T01:15:42.377Z,9.13
2022-10-11T01:18:30.660Z,9.43
2022-10-11T01:21:22.507Z,8.38
2022-10-11T01:24:19.011Z,11.80
2022-10-11T01:27:05.572Z,8.88
2022-10-11T01:29:45.004Z,9.63
2022-10-11T01:32:38.152Z,16.20
2022-10-11T01:35:28.836Z,13.48
2022-10-11T01:38:16.969Z,9.68
2022-10-11T01:40:50.207Z,10.30
2022-10-11T01:43:17.345Z,6.93
2022-10-11T01:45:44.638Z,6.85
2022-10-11T01:48:12.940Z,11.02
2022-10-11T01:50:40.087Z,7.95
2022-10-11T01:53:16.250Z,6.10
2022-10-11T01:55:51.249Z,10.77
2022-10-11T01:58:48.538Z,9.63
2022-10-11T02:01:32.264Z,11.80
2022-10-11T02:04:11.111Z,12.27
2022-10-11T02:06:51.178Z,11.32
2022-10-11T02:09:31.917Z,8.90
2022-10-11T02:12:02.405Z,12.68
2022-10-11T02:14:31.798Z,21.17
2022-10-11T02:17:04.036Z,11.48
2022-10-11T02:19:35.487Z,16.90
2022-10-11T02:22:05.981Z,14.40
2022-10-11T02:24:34.744Z,10.60
2022-10-11T02:27:02.773Z,13.40
2022-10-11T02:29:31.073Z,10.40
2022-10-11T02:31:58.787Z,10.65
2022-10-11T02:34:31.436Z,10.38
2022-10-11T02:37:21.599Z,11.05
2022-10-11T02:40:10.616Z,10.73
2022-10-11T02:42:44.351Z,12.13
2022-10-11T02:45:26.575Z,13.20
2022-10-11T02:47:53.723Z,19.85
2022-10-11T02:50:22.015Z,22.20
2022-10-11T02:52:49.175Z,8.88
2022-10-11T02:55:16.350Z,9.60
2022-10-11T02:57:43.552Z,22.63
2022-10-11T03:00:11.500Z,10.52
2022-10-11T03:02:38.644Z,11.02
2022-10-11T03:05:05.954Z,12.57
2022-10-11T03:07:33.357Z,13.23
2022-10-11T03:10:00.498Z,12.95
2022-10-11T03:12:27.662Z,12.00
2022-10-11T03:14:54.796Z,21.73
2022-10-11T03:17:36.269Z,10.43
2022-10-11T03:20:05.476Z,12.27
2022-10-11T03:22:32.620Z,9.80
2022-10-11T03:25:03.702Z,12.45
2022-10-11T03:27:32.849Z,11.13
2022-10-11T03:30:00.133Z,11.52
2022-10-11T03:32:27.387Z,15.80
2022-10-11T03:34:54.553Z,13.02
2022-10-11T03:37:21.711Z,14.52
2022-10-11T03:39:48.896Z,12.20
2022-10-11T03:42:16.766Z,8.77
2022-10-11T03:44:43.910Z,16.85
2022-10-11T03:47:11.129Z,9.70
2022-10-11T03:49:42.714Z,11.80
2022-10-11T03:52:10.919Z,12.75
2022-10-11T03:54:38.034Z,9.82
2022-10-11T03:57:05.174Z,7.38
2022-10-11T03:59:32.304Z,33.17
2022-10-11T04:01:59.514Z,13.45
2022-10-11T04:04:26.722Z,9.00
2022-10-11T04:06:53.845Z,12.77
2022-10-11T04:09:21.031Z,13.52
2022-10-11T04:11:48.178Z,9.82
2022-10-11T04:14:15.319Z,12.02
2022-10-11T04:16:42.566Z,11.23
2022-10-11T04:19:09.769Z,9.05
2022-10-11T04:21:36.894Z,7.97
2022-10-11T04:24:04.352Z,10.57
2022-10-11T04:26:31.581Z,19.50
2022-10-11T04:28:58.880Z,9.38
2022-10-11T04:31:26.305Z,18.25
2022-10-11T04:33:53.470Z,10.35
2022-10-11T04:36:20.640Z,8.90
2022-10-11T04:38:47.812Z,8.82
2022-10-11T04:41:15.339Z,11.25
2022-10-11T04:43:42.530Z,10.50
2022-10-11T04:46:10.320Z,9.65
2022-10-11T04:48:38.248Z,10.90
2022-10-11T04:51:05.595Z,13.38
2022-10-11T04:53:32.739Z,9.98
2022-10-11T04:56:05.470Z,10.10
2022-10-11T04:58:33.389Z,9.68
2022-10-11T05:01:00.770Z,7.57
2022-10-11T05:03:28.192Z,7.80
2022-10-11T05:05:55.401Z,11.00
2022-10-11T05:08:25.682Z,8.00
2022-10-11T05:11:06.591Z,8.60
2022-10-11T05:13:34.458Z,8.80
2022-10-11T05:16:04.026Z,5.85
2022-10-11T05:18:34.196Z,8.70
2022-10-11T05:21:09.560Z,8.80
2022-10-11T05:23:37.058Z,13.25
2022-10-11T05:26:04.706Z,7.95
2022-10-11T05:28:32.095Z,7.70
2022-10-11T05:30:59.351Z,7.82
2022-10-11T05:33:26.505Z,9.15
2022-10-11T05:35:53.685Z,9.65
2022-10-11T05:38:20.906Z,10.32
2022-10-11T05:40:48.138Z,11.85
2022-10-11T05:43:15.367Z,11.23
2022-10-11T05:45:42.839Z,8.20
2022-10-11T05:48:10.237Z,7.55
2022-10-11T05:50:37.831Z,9.70
2022-10-11T05:53:05.184Z,12.98
2022-10-11T05:55:39.197Z,9.18
2022-10-11T05:58:06.759Z,9.88
2022-10-11T06:00:36.933Z,7.53
2022-10-11T06:03:05.623Z,7.88
2022-10-11T06:05:34.651Z,9.52
2022-10-11T06:08:06.649Z,11.30
2022-10-11T06:10:34.441Z,9.88
2022-10-11T06:13:04.559Z,10.93
2022-10-11T06:15:32.154Z,8.18
2022-10-11T06:17:59.625Z,9.63
2022-10-11T06:20:27.074Z,8.25
2022-10-11T06:22:54.554Z,9.70
2022-10-11T06:25:21.945Z,7.30
2022-10-11T06:27:52.475Z,11.77
2022-10-11T06:30:19.946Z,9.00
2022-10-11T06:32:47.315Z,10.88
2022-10-11T06:35:14.881Z,9.32
2022-10-11T06:37:42.243Z,9.52
2022-10-11T06:40:11.969Z,16.40
2022-10-11T06:42:39.304Z,10.10
2022-10-11T06:45:07.385Z,7.70
2022-10-11T06:47:37.132Z,10.30
2022-10-11T06:50:06.164Z,39.05
2022-10-11T06:52:33.327Z,8.85
2022-10-11T06:55:00.491Z,11.82
2022-10-11T06:57:28.181Z,12.35
2022-10-11T06:59:55.392Z,12.82
2022-10-11T07:02:22.538Z,11.45
2022-10-11T07:04:49.686Z,9.50
2022-10-11T07:07:16.844Z,10.80
2022-10-11T07:09:44.010Z,8.15
2022-10-11T07:12:11.727Z,10.75
2022-10-11T07:14:39.203Z,12.80
2022-10-11T07:17:06.422Z,17.38
2022-10-11T07:19:33.645Z,10.32
2022-10-11T07:22:00.840Z,17.10
2022-10-11T07:24:28.087Z,13.10
2022-10-11T07:26:55.241Z,15.57
2022-10-11T07:29:22.400Z,9.50
2022-10-11T07:31:49.550Z,13.15
2022-10-11T07:34:18.174Z,13.63
2022-10-11T07:36:45.423Z,14.95
2022-10-11T07:39:12.660Z,14.60
2022-10-11T07:41:45.407Z,11.50
2022-10-11T07:44:13.650Z,8.80
2022-10-11T07:46:40.774Z,14.68
2022-10-11T07:49:08.106Z,13.52
2022-10-11T07:51:35.272Z,9.45
2022-10-11T07:54:07.000Z,12.85
2022-10-11T07:56:35.415Z,14.88
2022-10-11T07:59:06.263Z,20.52
2022-10-11T08:01:33.592Z,11.18
2022-10-11T08:04:00.843Z,17.38
2022-10-11T08:06:31.638Z,13.68
2022-10-11T08:08:59.867Z,11.93
2022-10-11T08:11:35.029Z,16.33
2022-10-11T08:14:03.559Z,14.50
2022-10-11T08:16:30.747Z,15.35
2022-10-11T08:18:57.916Z,18.48
2022-10-11T08:21:26.637Z,18.27
2022-10-11T08:23:53.848Z,17.88
2022-10-11T08:26:21.200Z,16.90
2022-10-11T08:28:48.405Z,14.35
2022-10-11T08:31:15.918Z,14.57
2022-10-11T08:33:43.176Z,17.38
2022-10-11T08:36:11.120Z,12.18
2022-10-11T08:38:39.056Z,16.15
2022-10-11T08:41:29.204Z,18.17
2022-10-11T08:44:21.415Z,13.80
2022-10-11T08:47:00.307Z,13.85
2022-10-11T08:49:30.014Z,15.45
2022-10-11T08:52:04.406Z,14.95
2022-10-11T08:54:44.451Z,17.38
2022-10-11T08:57:31.650Z,14.30
2022-10-11T09:00:08.759Z,16.17
2022-10-11T09:03:14.636Z,15.13
2022-10-11T09:05:49.147Z,12.48
2022-10-11T09:08:35.107Z,12.80
2022-10-11T09:11:47.610Z,16.20
2022-10-11T09:14:19.486Z,19.52
2022-10-11T09:17:02.059Z,15.10
2022-10-11T09:19:36.142Z,13.65
2022-10-11T09:22:23.946Z,13.30
2022-10-11T09:25:02.908Z,12.27
2022-10-11T09:28:01.364Z,14.73
2022-10-11T09:30:25.325Z,14.38
2022-10-11T09:33:15.965Z,16.48
2022-10-11T09:35:46.155Z,18.60
2022-10-11T09:38:36.719Z,17.27
2022-10-11T09:41:21.408Z,16.10
2022-10-11T09:43:49.805Z,18.55
2022-10-11T09:46:35.706Z,18.27
2022-10-11T09:49:04.245Z,16.83
2022-10-11T09:51:31.404Z,17.30
2022-10-11T09:54:03.162Z,14.02
2022-10-11T09:56:31.202Z,23.50
2022-10-11T09:59:27.214Z,23.42
2022-10-11T10:02:14.409Z,17.35
2022-10-11T10:04:54.731Z,13.88
2022-10-11T10:07:22.029Z,17.17
2022-10-11T10:09:49.778Z,13.65
2022-10-11T10:12:28.463Z,18.05
2022-10-11T10:15:08.279Z,13.88
2022-10-11T10:17:36.063Z,15.35
2022-10-11T10:20:05.599Z,12.13
2022-10-11T10:22:34.803Z,12.45
2022-10-11T10:25:05.847Z,13.77
2022-10-11T10:27:32.994Z,12.88
2022-10-11T10:30:02.962Z,14.95
2022-10-11T10:32:53.274Z,14.10
2022-10-11T10:35:29.495Z,12.52
2022-10-11T10:38:11.049Z,30.05
2022-10-11T10:40:52.886Z,11.35
2022-10-11T10:43:22.484Z,12.50
2022-10-11T10:45:55.520Z,12.73
2022-10-11T10:49:02.028Z,13.98
2022-10-11T10:51:28.744Z,16.25
2022-10-11T10:54:19.247Z,11.17
2022-10-11T10:56:55.807Z,14.10
2022-10-11T10:59:44.995Z,14.10
2022-10-11T11:02:41.073Z,12.65
2022-10-11T11:05:16.266Z,15.88
2022-10-11T11:07:52.129Z,14.05
2022-10-11T11:10:25.203Z,14.35
2022-10-11T11:13:13.612Z,13.73
2022-10-11T11:15:49.132Z,14.05
2022-10-11T11:19:16.627Z,16.80
2022-10-11T11:21:49.210Z,17.75
2022-10-11T11:24:27.061Z,15.10
2022-10-11T11:27:05.409Z,21.85
2022-10-11T11:29:44.804Z,13.45
2022-10-11T11:32:25.467Z,15.48
2022-10-11T11:35:28.850Z,14.35
2022-10-11T11:38:06.048Z,17.42
2022-10-11T11:40:39.323Z,10.85
2022-10-11T11:43:36.197Z,14.65
2022-10-11T11:46:09.475Z,17.15
2022-10-11T11:48:36.619Z,18.27
2022-10-11T11:51:34.529Z,16.52
2022-10-11T11:54:26.013Z,15.48
2022-10-11T11:57:13.739Z,15.07
2022-10-11T11:59:52.170Z,14.05
2022-10-11T12:02:43.427Z,15.50
2022-10-11T12:05:12.768Z,11.25
2022-10-11T12:07:52.340Z,16.08
2022-10-11T12:10:28.716Z,19.00
2022-10-11T12:13:27.230Z,20.35
2022-10-11T12:16:13.705Z,14.30
2022-10-11T12:18:52.383Z,9.07
2022-10-11T12:21:31.746Z,10.98
2022-10-11T12:24:19.123Z,13.13
2022-10-11T12:26:54.110Z,10.52
2022-10-11T12:29:28.225Z,10.73
2022-10-11T12:31:59.142Z,17.63
2022-10-11T12:34:42.853Z,15.45
2022-10-11T12:37:19.535Z,11.23
2022-10-11T12:39:59.794Z,15.20
2022-10-11T12:42:30.724Z,13.18
2022-10-11T12:45:13.249Z,11.32
2022-10-11T12:47:55.562Z,11.10
2022-10-11T12:50:42.568Z,16.30
2022-10-11T12:53:19.729Z,12.05
2022-10-11T12:55:57.445Z,13.50
2022-10-11T12:58:30.541Z,8.68
2022-10-11T13:00:57.899Z,13.80
2022-10-11T13:03:33.385Z,19.50
2022-10-11T13:06:09.375Z,12.57
2022-10-11T13:08:37.624Z,13.68
2022-10-11T13:11:05.999Z,22.02
2022-10-11T13:13:41.628Z,17.08
2022-10-11T13:16:13.430Z,15.18
2022-10-11T13:18:45.318Z,14.48
2022-10-11T13:21:25.651Z,16.73
2022-10-11T13:23:58.863Z,13.13
2022-10-11T13:26:26.948Z,11.20
2022-10-11T13:28:54.122Z,13.57
2022-10-11T13:31:21.704Z,11.40
2022-10-11T13:33:48.866Z,13.95
2022-10-11T13:36:17.704Z,14.57
2022-10-11T13:38:56.846Z,13.00
2022-10-11T13:41:26.221Z,14.13
2022-10-11T13:43:54.847Z,13.00
2022-10-11T13:46:26.844Z,13.10
2022-10-11T13:49:05.520Z,9.68
2022-10-11T13:51:35.129Z,12.82
2022-10-11T13:54:13.130Z,10.73
2022-10-11T13:56:48.293Z,8.60
2022-10-11T13:59:25.699Z,15.52
2022-10-11T14:01:58.787Z,13.95
2022-10-11T14:04:29.488Z,15.13
2022-10-11T14:07:02.270Z,12.15
2022-10-11T14:09:33.836Z,12.48
2022-10-11T14:12:40.792Z,8.18
2022-10-11T14:15:30.905Z,17.35
2022-10-11T14:17:58.428Z,14.43
2022-10-11T14:20:47.182Z,20.15
2022-10-11T14:23:14.570Z,21.85
2022-10-11T14:25:41.799Z,16.70
2022-10-11T14:28:11.884Z,17.83
2022-10-11T14:30:39.767Z,16.05
2022-10-11T14:33:07.034Z,17.48
2022-10-11T14:35:34.732Z,18.30
2022-10-11T14:38:01.948Z,11.45
2022-10-11T14:40:30.218Z,12.82
2022-10-11T14:42:57.480Z,14.07
2022-10-11T14:45:24.781Z,16.35
2022-10-11T14:47:52.013Z,12.02
2022-10-11T14:50:37.532Z,16.98
2022-10-11T14:53:05.700Z,13.55
2022-10-11T14:55:33.014Z,12.20
2022-10-11T14:58:00.145Z,15.73
2022-10-11T15:00:28.326Z,19.40
2022-10-11T15:02:55.521Z,15.68
2022-10-11T15:05:23.619Z,15.48
2022-10-11T15:07:50.770Z,14.70
2022-10-11T15:10:26.856Z,17.25
2022-10-11T15:12:54.725Z,14.05
2022-10-11T15:15:24.175Z,14.75
2022-10-11T15:17:53.381Z,12.02
2022-10-11T15:20:42.874Z,11.65
2022-10-11T15:23:10.237Z,20.35
2022-10-11T15:25:37.916Z,18.55
2022-10-11T15:28:05.547Z,11.90
2022-10-11T15:30:38.502Z,16.23
2022-10-11T15:33:08.411Z,17.63
2022-10-11T15:35:35.611Z,15.27
2022-10-11T15:38:03.037Z,15.65
2022-10-11T15:40:36.780Z,16.58
2022-10-11T15:43:03.980Z,22.92
2022-10-11T15:45:31.259Z,17.33
2022-10-11T15:47:58.475Z,18.48
2022-10-11T15:50:34.435Z,13.85
2022-10-11T15:53:14.408Z,33.55
2022-10-11T15:55:43.642Z,40.15
2022-10-11T15:58:16.458Z,28.38
2022-10-11T16:00:44.568Z,22.35
2022-10-11T16:03:12.915Z,18.00
2022-10-11T16:05:40.135Z,13.15
2022-10-11T16:08:07.472Z,19.00
2022-10-11T16:10:34.684Z,16.25
2022-10-11T16:13:02.086Z,19.08
2022-10-11T16:15:29.362Z,14.35
2022-10-11T16:17:56.515Z,15.55
2022-10-11T16:20:25.651Z,17.48
2022-10-11T16:22:53.993Z,11.07
2022-10-11T16:25:21.339Z,15.00
2022-10-11T16:27:48.510Z,17.73
2022-10-11T16:30:16.327Z,22.02
2022-10-11T16:32:44.377Z,12.82
2022-10-11T16:35:12.427Z,21.17
2022-10-11T16:37:39.753Z,17.02
2022-10-11T16:40:08.009Z,18.10
2022-10-11T16:42:35.222Z,14.18
2022-10-11T16:45:02.374Z,13.65
2022-10-11T16:47:29.530Z,13.13
2022-10-11T16:49:56.796Z,12.65
2022-10-11T16:52:24.048Z,12.93
2022-10-11T16:54:51.327Z,13.65
2022-10-11T16:57:19.743Z,26.73
2022-10-11T16:59:47.055Z,19.40
2022-10-11T17:02:16.312Z,16.35
2022-10-11T17:04:43.893Z,16.50
2022-10-11T17:07:12.928Z,15.40
2022-10-11T17:09:44.263Z,14.07
2022-10-11T17:12:15.875Z,17.90
2022-10-11T17:14:43.302Z,15.85
2022-10-11T17:17:10.579Z,17.13
2022-10-11T17:19:44.845Z,15.35
2022-10-11T17:22:16.105Z,16.80
2022-10-11T17:24:43.383Z,18.00
2022-10-11T17:27:10.732Z,20.45
2022-10-11T17:29:38.168Z,15.13
2022-10-11T17:32:05.415Z,15.18
2022-10-11T17:34:32.671Z,19.75
2022-10-11T17:36:59.814Z,16.27
2022-10-11T17:39:26.948Z,25.63
2022-10-11T17:41:54.231Z,16.70
2022-10-11T17:44:21.639Z,16.70
2022-10-11T17:46:48.832Z,17.70
2022-10-11T17:49:16.156Z,11.43
2022-10-11T17:51:43.737Z,13.68
2022-10-11T17:54:12.729Z,16.88
2022-10-11T17:56:40.955Z,19.15
2022-10-11T17:59:08.741Z,18.65
2022-10-11T18:01:36.094Z,16.10
2022-10-11T18:04:04.296Z,18.55
2022-10-11T18:06:32.935Z,18.90
2022-10-11T18:09:00.803Z,20.08
2022-10-11T18:11:28.189Z,24.67
2022-10-11T18:13:55.661Z,24.15
2022-10-11T18:16:24.374Z,24.25
2022-10-11T18:18:51.596Z,23.50
2022-10-11T18:21:19.618Z,26.95
2022-10-11T18:23:46.983Z,20.75
2022-10-11T18:26:25.402Z,24.92
2022-10-11T18:28:55.761Z,23.17
2022-10-11T18:31:25.180Z,24.55
2022-10-11T18:33:52.881Z,20.23
2022-10-11T18:36:21.934Z,25.23
2022-10-11T18:38:51.815Z,18.98
2022-10-11T18:41:20.166Z,20.75
2022-10-11T18:43:51.406Z,24.00
2022-10-11T18:46:18.684Z,21.42
2022-10-11T18:48:47.072Z,22.70
2022-10-11T18:51:22.169Z,25.60
2022-10-11T18:53:49.481Z,28.00
2022-10-11T18:56:17.366Z,26.00
2022-10-11T18:58:44.815Z,23.30
2022-10-11T19:01:17.257Z,25.70
2022-10-11T19:03:49.121Z,25.15
2022-10-11T19:06:17.668Z,27.40
2022-10-11T19:08:48.782Z,23.95
2022-10-11T19:11:16.160Z,29.42
2022-10-11T19:13:43.545Z,26.00
2022-10-11T19:16:16.926Z,26.88
2022-10-11T19:18:44.620Z,25.27
2022-10-11T19:21:12.601Z,28.52
2022-10-11T19:23:41.813Z,27.00
2022-10-11T19:26:20.254Z,22.05
2022-10-11T19:28:47.932Z,24.25
2022-10-11T19:31:16.994Z,23.95
2022-10-11T19:33:44.917Z,23.20
2022-10-11T19:36:13.715Z,22.50
2022-10-11T19:38:44.040Z,24.10
2022-10-11T19:41:11.663Z,25.75
2022-10-11T19:43:38.845Z,26.70
2022-10-11T19:46:08.270Z,27.70
2022-10-11T19:48:38.959Z,30.85
2022-10-11T19:51:13.939Z,27.67
2022-10-11T19:53:42.605Z,29.95
2022-10-11T19:56:17.311Z,26.60
2022-10-11T19:58:44.612Z,25.73
2022-10-11T20:01:16.206Z,26.98
2022-10-11T20:03:44.098Z,23.38
2022-10-11T20:06:12.592Z,32.25
2022-10-11T20:08:39.722Z,25.17
2022-10-11T20:11:10.317Z,23.27
2022-10-11T20:13:37.614Z,21.05
2022-10-11T20:16:10.497Z,28.48
2022-10-11T20:18:37.825Z,31.38
2022-10-11T20:21:13.063Z,28.08
2022-10-11T20:26:21.762Z,24.88
2022-10-11T20:28:54.987Z,28.33
2022-10-11T20:31:25.811Z,25.52
2022-10-11T20:33:55.533Z,29.10
2022-10-11T20:36:23.450Z,26.90
2022-10-11T20:38:50.765Z,32.38
2022-10-11T20:41:20.208Z,27.25
2022-10-11T20:43:48.426Z,29.13
2022-10-11T20:46:20.173Z,24.63
2022-10-11T20:48:52.319Z,29.90
2022-10-11T20:51:19.799Z,33.67
2022-10-11T20:53:47.100Z,24.70
2022-10-11T20:56:15.134Z,29.33
2022-10-11T20:58:43.027Z,29.30
2022-10-11T21:01:17.973Z,28.08
2022-10-11T21:03:45.157Z,22.70
2022-10-11T21:06:12.407Z,28.75
2022-10-11T21:08:40.016Z,34.13
2022-10-11T21:11:07.798Z,34.95
2022-10-11T21:13:35.051Z,27.42
2022-10-11T21:16:11.144Z,31.98
2022-10-11T21:18:38.703Z,25.38
2022-10-11T21:21:13.197Z,29.70
2022-10-11T21:23:40.794Z,26.90
2022-10-11T21:26:09.733Z,31.17
2022-10-11T21:28:37.318Z,28.17
2022-10-11T21:31:22.973Z,29.58
2022-10-11T21:33:50.465Z,28.55
2022-10-11T21:36:19.360Z,28.98
2022-10-11T21:38:46.634Z,32.08
2022-10-11T21:41:21.404Z,28.85
2022-10-11T21:43:48.689Z,27.73
2022-10-11T21:46:47.665Z,30.00
2022-10-11T21:49:15.196Z,27.30
2022-10-11T21:51:42.555Z,23.42
2022-10-11T21:54:09.755Z,27.90
2022-10-11T21:56:36.964Z,30.83
2022-10-11T21:59:06.575Z,26.55
2022-10-11T22:01:36.814Z,24.05
2022-10-11T22:04:04.852Z,28.70
2022-10-11T22:06:31.994Z,26.65
2022-10-11T22:09:00.767Z,26.63
2022-10-11T22:11:27.896Z,25.98
2022-10-11T22:13:55.039Z,23.67
2022-10-11T22:16:22.195Z,35.75
2022-10-11T22:18:49.363Z,29.42
2022-10-11T22:21:18.182Z,30.15
2022-10-11T22:23:46.572Z,26.63
2022-10-11T22:26:15.607Z,31.92
2022-10-11T22:28:42.830Z,38.47
2022-10-11T22:31:10.078Z,35.85
2022-10-11T22:33:37.458Z,30.30
2022-10-11T22:36:10.052Z,29.60
2022-10-11T22:38:40.795Z,33.28
2022-10-11T22:41:07.979Z,31.30
2022-10-11T22:43:35.159Z,32.38
2022-10-11T22:46:02.353Z,33.50
2022-10-11T22:48:29.674Z,29.50
2022-10-11T22:50:56.814Z,33.47
2022-10-11T22:53:23.936Z,31.30
2022-10-11T22:55:51.061Z,36.85
2022-10-11T22:58:18.230Z,32.28
2022-10-11T23:00:45.411Z,29.40
2022-10-11T23:03:13.791Z,32.35
2022-10-11T23:05:40.945Z,28.75
2022-10-11T23:08:09.483Z,29.73
2022-10-11T23:10:40.035Z,33.50
2022-10-11T23:13:07.263Z,34.63
2022-10-11T23:15:34.400Z,34.40
2022-10-11T23:18:01.515Z,30.70
2022-10-11T23:20:28.645Z,32.13
2022-10-11T23:22:55.769Z,34.50
2022-10-11T23:25:22.912Z,31.92
2022-10-11T23:27:50.052Z,29.40
2022-10-11T23:30:17.291Z,34.90
2022-10-11T23:32:44.410Z,33.30
2022-10-11T23:35:11.579Z,34.60
2022-10-11T23:37:39.100Z,32.83
2022-10-11T23:40:07.860Z,31.02
2022-10-11T23:42:34.985Z,32.63
2022-10-11T23:45:02.133Z,32.15
2022-10-11T23:47:29.342Z,30.17
2022-10-11T23:49:56.491Z,38.30
2022-10-11T23:52:23.637Z,35.22
2022-10-11T23:54:50.778Z,35.35
2022-10-11T23:57:17.985Z,27.65
2022-10-11T23:59:45.137Z,35.67
